sensor_id;sensor_type;location;lat;lon;timestamp;P1;durP1;ratioP1;P2;durP2;ratioP2
20476;SDS011;10397;50.948;11.092;2023-02-25T00:02:27;5.12;;;1.85;;
20476;SDS011;10397;50.948;11.092;2023-02-25T00:05:00;3.52;;;1.50;;
20476;SDS011;10397;50.948;11.092;2023-02-25T00:07:29;13.00;;;1.77;;
20476;SDS011;10397;50.948;11.092;2023-02-25T00:10:00;7.28;;;1.27;;
20476;SDS011;10397;50.948;11.092;2023-02-25T00:12:32;10.65;;;1.57;;
20476;SDS011;10397;50.948;11.092;2023-02-25T00:15:03;6.03;;;1.00;;
20476;SDS011;10397;50.948;11.092;2023-02-25T00:17:34;11.57;;;1.55;;
20476;SDS011;10397;50.948;11.092;2023-02-25T00:20:05;10.53;;;1.90;;
20476;SDS011;10397;50.948;11.092;2023-02-25T00:22:35;10.30;;;1.50;;
20476;SDS011;10397;50.948;11.092;2023-02-25T00:25:07;10.95;;;1.40;;
20476;SDS011;10397;50.948;11.092;2023-02-25T00:27:38;5.45;;;0.98;;
20476;SDS011;10397;50.948;11.092;2023-02-25T00:30:10;10.13;;;1.17;;
20476;SDS011;10397;50.948;11.092;2023-02-25T00:32:40;9.35;;;2.08;;
20476;SDS011;10397;50.948;11.092;2023-02-25T00:35:12;8.15;;;1.10;;
20476;SDS011;10397;50.948;11.092;2023-02-25T00:37:44;14.63;;;1.87;;
20476;SDS011;10397;50.948;11.092;2023-02-25T00:40:17;11.65;;;1.57;;
20476;SDS011;10397;50.948;11.092;2023-02-25T00:42:47;10.07;;;1.30;;
20476;SDS011;10397;50.948;11.092;2023-02-25T00:45:18;11.70;;;1.87;;
20476;SDS011;10397;50.948;11.092;2023-02-25T00:47:50;12.73;;;1.67;;
20476;SDS011;10397;50.948;11.092;2023-02-25T00:50:21;14.85;;;1.67;;
20476;SDS011;10397;50.948;11.092;2023-02-25T00:52:53;8.68;;;1.40;;
20476;SDS011;10397;50.948;11.092;2023-02-25T00:55:24;12.28;;;1.92;;
20476;SDS011;10397;50.948;11.092;2023-02-25T00:57:55;7.20;;;1.47;;
20476;SDS011;10397;50.948;11.092;2023-02-25T01:00:26;9.10;;;1.50;;
20476;SDS011;10397;50.948;11.092;2023-02-25T01:02:57;16.57;;;1.82;;
20476;SDS011;10397;50.948;11.092;2023-02-25T01:05:29;7.90;;;1.02;;
20476;SDS011;10397;50.948;11.092;2023-02-25T01:08:00;9.70;;;1.45;;
20476;SDS011;10397;50.948;11.092;2023-02-25T01:10:32;12.43;;;1.50;;
20476;SDS011;10397;50.948;11.092;2023-02-25T01:13:03;10.13;;;1.90;;
20476;SDS011;10397;50.948;11.092;2023-02-25T01:15:34;8.38;;;1.00;;
20476;SDS011;10397;50.948;11.092;2023-02-25T01:18:06;10.75;;;1.17;;
20476;SDS011;10397;50.948;11.092;2023-02-25T01:20:38;7.33;;;1.35;;
20476;SDS011;10397;50.948;11.092;2023-02-25T01:23:08;7.07;;;1.17;;
20476;SDS011;10397;50.948;11.092;2023-02-25T01:25:39;12.60;;;1.93;;
20476;SDS011;10397;50.948;11.092;2023-02-25T01:28:10;10.35;;;1.10;;
20476;SDS011;10397;50.948;11.092;2023-02-25T01:30:42;13.45;;;1.67;;
20476;SDS011;10397;50.948;11.092;2023-02-25T01:33:13;6.05;;;0.98;;
20476;SDS011;10397;50.948;11.092;2023-02-25T01:35:45;15.67;;;1.43;;
20476;SDS011;10397;50.948;11.092;2023-02-25T01:38:16;5.35;;;1.22;;
20476;SDS011;10397;50.948;11.092;2023-02-25T01:40:47;9.87;;;1.30;;
20476;SDS011;10397;50.948;11.092;2023-02-25T01:43:18;10.60;;;1.55;;
20476;SDS011;10397;50.948;11.092;2023-02-25T01:45:49;10.15;;;1.92;;
20476;SDS011;10397;50.948;11.092;2023-02-25T01:48:24;11.63;;;1.50;;
20476;SDS011;10397;50.948;11.092;2023-02-25T01:51:05;10.90;;;1.40;;
20476;SDS011;10397;50.948;11.092;2023-02-25T01:53:34;13.07;;;1.77;;
20476;SDS011;10397;50.948;11.092;2023-02-25T01:56:06;13.33;;;1.57;;
20476;SDS011;10397;50.948;11.092;2023-02-25T01:58:37;7.87;;;1.10;;
20476;SDS011;10397;50.948;11.092;2023-02-25T02:01:12;10.15;;;1.55;;
20476;SDS011;10397;50.948;11.092;2023-02-25T02:03:42;9.08;;;1.32;;
20476;SDS011;10397;50.948;11.092;2023-02-25T02:06:17;6.30;;;0.88;;
20476;SDS011;10397;50.948;11.092;2023-02-25T02:08:49;10.07;;;1.87;;
20476;SDS011;10397;50.948;11.092;2023-02-25T02:11:21;15.95;;;1.65;;
20476;SDS011;10397;50.948;11.092;2023-02-25T02:13:53;6.28;;;1.75;;
20476;SDS011;10397;50.948;11.092;2023-02-25T02:16:31;6.95;;;1.37;;
20476;SDS011;10397;50.948;11.092;2023-02-25T02:19:20;14.47;;;1.83;;
20476;SDS011;10397;50.948;11.092;2023-02-25T02:22:08;12.90;;;1.50;;
20476;SDS011;10397;50.948;11.092;2023-02-25T02:30:02;8.50;;;1.72;;
20476;SDS011;10397;50.948;11.092;2023-02-25T02:32:34;13.93;;;1.85;;
20476;SDS011;10397;50.948;11.092;2023-02-25T02:35:04;6.58;;;1.15;;
20476;SDS011;10397;50.948;11.092;2023-02-25T02:40:24;13.40;;;1.30;;
20476;SDS011;10397;50.948;11.092;2023-02-25T02:48:14;9.90;;;2.10;;
20476;SDS011;10397;50.948;11.092;2023-02-25T02:50:55;12.70;;;1.42;;
20476;SDS011;10397;50.948;11.092;2023-02-25T02:53:36;4.90;;;0.97;;
20476;SDS011;10397;50.948;11.092;2023-02-25T02:55:55;9.80;;;1.42;;
20476;SDS011;10397;50.948;11.092;2023-02-25T03:01:20;7.33;;;1.00;;
20476;SDS011;10397;50.948;11.092;2023-02-25T03:03:54;12.10;;;1.67;;
20476;SDS011;10397;50.948;11.092;2023-02-25T03:06:20;6.70;;;1.00;;
20476;SDS011;10397;50.948;11.092;2023-02-25T03:11:33;6.20;;;1.03;;
20476;SDS011;10397;50.948;11.092;2023-02-25T03:14:04;6.30;;;1.12;;
20476;SDS011;10397;50.948;11.092;2023-02-25T03:16:37;8.98;;;1.30;;
20476;SDS011;10397;50.948;11.092;2023-02-25T03:19:17;11.05;;;1.05;;
20476;SDS011;10397;50.948;11.092;2023-02-25T03:21:48;9.73;;;1.20;;
20476;SDS011;10397;50.948;11.092;2023-02-25T03:24:28;8.93;;;1.20;;
20476;SDS011;10397;50.948;11.092;2023-02-25T03:26:57;8.47;;;1.30;;
20476;SDS011;10397;50.948;11.092;2023-02-25T03:29:28;10.95;;;1.55;;
20476;SDS011;10397;50.948;11.092;2023-02-25T03:32:03;7.55;;;1.20;;
20476;SDS011;10397;50.948;11.092;2023-02-25T03:34:37;8.07;;;1.23;;
20476;SDS011;10397;50.948;11.092;2023-02-25T03:37:05;15.08;;;1.25;;
20476;SDS011;10397;50.948;11.092;2023-02-25T03:39:40;4.33;;;1.00;;
20476;SDS011;10397;50.948;11.092;2023-02-25T03:42:11;12.63;;;1.35;;
20476;SDS011;10397;50.948;11.092;2023-02-25T03:44:43;6.08;;;1.10;;
20476;SDS011;10397;50.948;11.092;2023-02-25T03:47:15;11.67;;;1.40;;
20476;SDS011;10397;50.948;11.092;2023-02-25T03:49:49;7.17;;;1.57;;
20476;SDS011;10397;50.948;11.092;2023-02-25T03:52:20;8.67;;;1.40;;
20476;SDS011;10397;50.948;11.092;2023-02-25T03:54:51;12.80;;;1.47;;
20476;SDS011;10397;50.948;11.092;2023-02-25T03:57:22;5.30;;;0.93;;
20476;SDS011;10397;50.948;11.092;2023-02-25T03:59:52;11.83;;;1.93;;
20476;SDS011;10397;50.948;11.092;2023-02-25T04:02:26;10.55;;;1.40;;
20476;SDS011;10397;50.948;11.092;2023-02-25T04:05:01;6.70;;;1.00;;
20476;SDS011;10397;50.948;11.092;2023-02-25T04:07:32;3.58;;;0.85;;
20476;SDS011;10397;50.948;11.092;2023-02-25T04:10:05;7.17;;;1.32;;
20476;SDS011;10397;50.948;11.092;2023-02-25T04:12:35;6.37;;;1.85;;
20476;SDS011;10397;50.948;11.092;2023-02-25T04:15:07;7.20;;;1.00;;
20476;SDS011;10397;50.948;11.092;2023-02-25T04:17:38;5.92;;;0.93;;
20476;SDS011;10397;50.948;11.092;2023-02-25T04:20:10;8.70;;;1.37;;
20476;SDS011;10397;50.948;11.092;2023-02-25T04:22:40;9.30;;;1.20;;
20476;SDS011;10397;50.948;11.092;2023-02-25T04:25:12;7.17;;;0.98;;
20476;SDS011;10397;50.948;11.092;2023-02-25T04:27:42;3.43;;;0.87;;
20476;SDS011;10397;50.948;11.092;2023-02-25T04:30:13;4.60;;;0.90;;
20476;SDS011;10397;50.948;11.092;2023-02-25T04:32:44;7.28;;;1.20;;
20476;SDS011;10397;50.948;11.092;2023-02-25T04:35:15;11.33;;;1.00;;
20476;SDS011;10397;50.948;11.092;2023-02-25T04:37:46;10.15;;;1.20;;
20476;SDS011;10397;50.948;11.092;2023-02-25T04:40:18;13.17;;;1.13;;
20476;SDS011;10397;50.948;11.092;2023-02-25T04:42:48;4.97;;;0.62;;
20476;SDS011;10397;50.948;11.092;2023-02-25T04:45:19;9.50;;;0.90;;
20476;SDS011;10397;50.948;11.092;2023-02-25T04:47:51;7.92;;;0.80;;
20476;SDS011;10397;50.948;11.092;2023-02-25T04:50:23;5.70;;;0.93;;
20476;SDS011;10397;50.948;11.092;2023-02-25T04:52:54;7.12;;;0.85;;
20476;SDS011;10397;50.948;11.092;2023-02-25T04:55:24;6.37;;;1.67;;
20476;SDS011;10397;50.948;11.092;2023-02-25T04:57:55;6.28;;;0.93;;
20476;SDS011;10397;50.948;11.092;2023-02-25T05:00:26;8.95;;;1.20;;
20476;SDS011;10397;50.948;11.092;2023-02-25T05:02:58;6.53;;;1.10;;
20476;SDS011;10397;50.948;11.092;2023-02-25T05:05:30;6.10;;;0.80;;
20476;SDS011;10397;50.948;11.092;2023-02-25T05:08:01;7.55;;;1.52;;
20476;SDS011;10397;50.948;11.092;2023-02-25T05:10:33;8.90;;;1.80;;
20476;SDS011;10397;50.948;11.092;2023-02-25T05:13:04;4.25;;;0.90;;
20476;SDS011;10397;50.948;11.092;2023-02-25T05:15:35;8.68;;;1.27;;
20476;SDS011;10397;50.948;11.092;2023-02-25T05:18:07;9.15;;;1.00;;
20476;SDS011;10397;50.948;11.092;2023-02-25T05:20:43;8.13;;;1.02;;
20476;SDS011;10397;50.948;11.092;2023-02-25T05:23:09;5.50;;;1.20;;
20476;SDS011;10397;50.948;11.092;2023-02-25T05:25:40;8.03;;;0.90;;
20476;SDS011;10397;50.948;11.092;2023-02-25T05:28:12;7.95;;;1.25;;
20476;SDS011;10397;50.948;11.092;2023-02-25T05:30:44;8.33;;;1.22;;
20476;SDS011;10397;50.948;11.092;2023-02-25T05:33:15;10.53;;;1.00;;
20476;SDS011;10397;50.948;11.092;2023-02-25T05:35:47;7.28;;;1.07;;
20476;SDS011;10397;50.948;11.092;2023-02-25T05:38:18;8.28;;;1.22;;
20476;SDS011;10397;50.948;11.092;2023-02-25T05:40:50;5.00;;;0.80;;
20476;SDS011;10397;50.948;11.092;2023-02-25T05:43:21;7.87;;;1.00;;
20476;SDS011;10397;50.948;11.092;2023-02-25T05:45:52;6.23;;;0.87;;
20476;SDS011;10397;50.948;11.092;2023-02-25T05:48:23;6.08;;;1.12;;
20476;SDS011;10397;50.948;11.092;2023-02-25T05:51:01;4.80;;;0.88;;
20476;SDS011;10397;50.948;11.092;2023-02-25T05:53:30;3.43;;;0.60;;
20476;SDS011;10397;50.948;11.092;2023-02-25T05:56:04;2.87;;;0.60;;
20476;SDS011;10397;50.948;11.092;2023-02-25T05:58:34;2.40;;;0.70;;
20476;SDS011;10397;50.948;11.092;2023-02-25T06:01:09;2.33;;;0.50;;
20476;SDS011;10397;50.948;11.092;2023-02-25T06:03:39;2.03;;;0.47;;
20476;SDS011;10397;50.948;11.092;2023-02-25T06:06:10;1.63;;;0.40;;
20476;SDS011;10397;50.948;11.092;2023-02-25T06:08:41;3.30;;;0.60;;
20476;SDS011;10397;50.948;11.092;2023-02-25T06:11:12;2.80;;;0.47;;
20476;SDS011;10397;50.948;11.092;2023-02-25T06:13:42;1.20;;;0.25;;
20476;SDS011;10397;50.948;11.092;2023-02-25T06:16:13;3.03;;;0.43;;
20476;SDS011;10397;50.948;11.092;2023-02-25T06:18:45;2.40;;;0.40;;
20476;SDS011;10397;50.948;11.092;2023-02-25T06:21:15;2.87;;;0.27;;
20476;SDS011;10397;50.948;11.092;2023-02-25T06:23:45;5.50;;;0.50;;
20476;SDS011;10397;50.948;11.092;2023-02-25T06:26:16;4.60;;;0.40;;
20476;SDS011;10397;50.948;11.092;2023-02-25T06:28:47;7.47;;;0.60;;
20476;SDS011;10397;50.948;11.092;2023-02-25T06:31:19;4.22;;;0.45;;
20476;SDS011;10397;50.948;11.092;2023-02-25T06:33:49;4.43;;;0.60;;
20476;SDS011;10397;50.948;11.092;2023-02-25T06:36:20;3.08;;;0.60;;
20476;SDS011;10397;50.948;11.092;2023-02-25T06:38:51;5.53;;;0.77;;
20476;SDS011;10397;50.948;11.092;2023-02-25T06:41:22;2.63;;;0.83;;
20476;SDS011;10397;50.948;11.092;2023-02-25T06:43:52;4.37;;;1.23;;
20476;SDS011;10397;50.948;11.092;2023-02-25T06:46:24;2.50;;;0.57;;
20476;SDS011;10397;50.948;11.092;2023-02-25T06:48:54;2.33;;;0.40;;
20476;SDS011;10397;50.948;11.092;2023-02-25T06:51:24;5.57;;;0.60;;
20476;SDS011;10397;50.948;11.092;2023-02-25T06:53:55;6.03;;;0.88;;
20476;SDS011;10397;50.948;11.092;2023-02-25T06:56:27;3.15;;;0.57;;
20476;SDS011;10397;50.948;11.092;2023-02-25T06:58:58;3.53;;;0.63;;
20476;SDS011;10397;50.948;11.092;2023-02-25T07:01:29;4.45;;;0.53;;
20476;SDS011;10397;50.948;11.092;2023-02-25T07:04:00;4.73;;;0.73;;
20476;SDS011;10397;50.948;11.092;2023-02-25T07:06:31;3.53;;;0.67;;
20476;SDS011;10397;50.948;11.092;2023-02-25T07:09:02;5.57;;;0.97;;
20476;SDS011;10397;50.948;11.092;2023-02-25T07:11:33;4.67;;;1.33;;
20476;SDS011;10397;50.948;11.092;2023-02-25T07:14:04;2.87;;;0.60;;
20476;SDS011;10397;50.948;11.092;2023-02-25T07:16:34;2.27;;;0.60;;
20476;SDS011;10397;50.948;11.092;2023-02-25T07:19:05;2.23;;;0.60;;
20476;SDS011;10397;50.948;11.092;2023-02-25T07:21:36;4.40;;;0.77;;
20476;SDS011;10397;50.948;11.092;2023-02-25T07:24:11;1.93;;;0.60;;
20476;SDS011;10397;50.948;11.092;2023-02-25T07:26:38;2.57;;;0.83;;
20476;SDS011;10397;50.948;11.092;2023-02-25T07:29:09;6.58;;;0.82;;
20476;SDS011;10397;50.948;11.092;2023-02-25T07:31:41;7.33;;;1.20;;
20476;SDS011;10397;50.948;11.092;2023-02-25T07:34:13;2.70;;;0.70;;
20476;SDS011;10397;50.948;11.092;2023-02-25T07:36:43;3.17;;;0.62;;
20476;SDS011;10397;50.948;11.092;2023-02-25T07:39:15;4.53;;;0.80;;
20476;SDS011;10397;50.948;11.092;2023-02-25T07:41:46;9.20;;;1.27;;
20476;SDS011;10397;50.948;11.092;2023-02-25T07:44:17;6.17;;;0.98;;
20476;SDS011;10397;50.948;11.092;2023-02-25T07:46:48;3.27;;;0.80;;
20476;SDS011;10397;50.948;11.092;2023-02-25T07:49:19;2.70;;;0.67;;
20476;SDS011;10397;50.948;11.092;2023-02-25T07:51:49;3.77;;;0.60;;
20476;SDS011;10397;50.948;11.092;2023-02-25T07:54:21;4.57;;;0.73;;
20476;SDS011;10397;50.948;11.092;2023-02-25T07:56:52;7.75;;;1.20;;
20476;SDS011;10397;50.948;11.092;2023-02-25T07:59:24;5.53;;;0.53;;
20476;SDS011;10397;50.948;11.092;2023-02-25T08:01:54;3.77;;;0.70;;
20476;SDS011;10397;50.948;11.092;2023-02-25T08:04:26;4.87;;;0.60;;
20476;SDS011;10397;50.948;11.092;2023-02-25T08:06:56;3.47;;;1.00;;
20476;SDS011;10397;50.948;11.092;2023-02-25T08:09:27;5.80;;;1.00;;
20476;SDS011;10397;50.948;11.092;2023-02-25T08:11:59;3.35;;;0.60;;
20476;SDS011;10397;50.948;11.092;2023-02-25T08:14:30;2.33;;;0.70;;
20476;SDS011;10397;50.948;11.092;2023-02-25T08:17:01;3.75;;;0.70;;
20476;SDS011;10397;50.948;11.092;2023-02-25T08:19:33;1.70;;;0.78;;
20476;SDS011;10397;50.948;11.092;2023-02-25T08:22:04;4.33;;;0.78;;
20476;SDS011;10397;50.948;11.092;2023-02-25T08:24:35;3.57;;;1.07;;
20476;SDS011;10397;50.948;11.092;2023-02-25T08:27:06;3.55;;;0.70;;
20476;SDS011;10397;50.948;11.092;2023-02-25T08:29:37;3.60;;;0.78;;
20476;SDS011;10397;50.948;11.092;2023-02-25T08:32:08;3.22;;;0.70;;
20476;SDS011;10397;50.948;11.092;2023-02-25T08:34:39;1.33;;;0.63;;
20476;SDS011;10397;50.948;11.092;2023-02-25T08:37:10;2.27;;;0.50;;
20476;SDS011;10397;50.948;11.092;2023-02-25T08:39:41;2.60;;;0.53;;
20476;SDS011;10397;50.948;11.092;2023-02-25T08:42:12;3.90;;;0.60;;
20476;SDS011;10397;50.948;11.092;2023-02-25T08:44:43;4.30;;;0.60;;
20476;SDS011;10397;50.948;11.092;2023-02-25T08:47:14;1.22;;;0.60;;
20476;SDS011;10397;50.948;11.092;2023-02-25T08:49:45;3.60;;;0.67;;
20476;SDS011;10397;50.948;11.092;2023-02-25T08:52:16;2.93;;;0.57;;
20476;SDS011;10397;50.948;11.092;2023-02-25T08:54:47;5.03;;;0.80;;
20476;SDS011;10397;50.948;11.092;2023-02-25T08:57:18;2.37;;;0.50;;
20476;SDS011;10397;50.948;11.092;2023-02-25T08:59:49;3.27;;;0.50;;
20476;SDS011;10397;50.948;11.092;2023-02-25T09:02:21;4.28;;;0.55;;
20476;SDS011;10397;50.948;11.092;2023-02-25T09:04:52;2.60;;;0.90;;
20476;SDS011;10397;50.948;11.092;2023-02-25T09:07:23;3.22;;;0.85;;
20476;SDS011;10397;50.948;11.092;2023-02-25T09:09:55;6.53;;;0.95;;
20476;SDS011;10397;50.948;11.092;2023-02-25T09:12:26;5.37;;;1.32;;
20476;SDS011;10397;50.948;11.092;2023-02-25T09:14:57;3.52;;;1.00;;
20476;SDS011;10397;50.948;11.092;2023-02-25T09:17:28;3.50;;;1.10;;
20476;SDS011;10397;50.948;11.092;2023-02-25T09:19:59;7.35;;;1.37;;
20476;SDS011;10397;50.948;11.092;2023-02-25T09:22:30;2.87;;;0.70;;
20476;SDS011;10397;50.948;11.092;2023-02-25T09:25:01;5.73;;;1.37;;
20476;SDS011;10397;50.948;11.092;2023-02-25T09:27:32;2.55;;;0.60;;
20476;SDS011;10397;50.948;11.092;2023-02-25T09:30:02;2.07;;;0.70;;
20476;SDS011;10397;50.948;11.092;2023-02-25T09:32:33;8.30;;;0.80;;
20476;SDS011;10397;50.948;11.092;2023-02-25T09:35:04;6.90;;;0.70;;
20476;SDS011;10397;50.948;11.092;2023-02-25T09:37:35;1.27;;;0.47;;
20476;SDS011;10397;50.948;11.092;2023-02-25T09:40:06;5.57;;;0.40;;
20476;SDS011;10397;50.948;11.092;2023-02-25T09:42:43;1.13;;;0.37;;
20476;SDS011;10397;50.948;11.092;2023-02-25T09:45:13;1.43;;;0.40;;
20476;SDS011;10397;50.948;11.092;2023-02-25T09:47:55;3.93;;;0.47;;
20476;SDS011;10397;50.948;11.092;2023-02-25T09:50:24;2.20;;;0.30;;
20476;SDS011;10397;50.948;11.092;2023-02-25T09:55:39;2.60;;;0.30;;
20476;SDS011;10397;50.948;11.092;2023-02-25T10:00:45;3.70;;;0.40;;
20476;SDS011;10397;50.948;11.092;2023-02-25T10:05:59;1.47;;;0.20;;
20476;SDS011;10397;50.948;11.092;2023-02-25T10:08:31;5.70;;;0.30;;
20476;SDS011;10397;50.948;11.092;2023-02-25T10:11:05;1.40;;;0.30;;
20476;SDS011;10397;50.948;11.092;2023-02-25T10:13:50;2.70;;;0.50;;
20476;SDS011;10397;50.948;11.092;2023-02-25T10:16:20;1.87;;;0.30;;
20476;SDS011;10397;50.948;11.092;2023-02-25T10:21:36;2.10;;;0.50;;
20476;SDS011;10397;50.948;11.092;2023-02-25T10:24:15;1.07;;;0.20;;
20476;SDS011;10397;50.948;11.092;2023-02-25T10:26:46;1.30;;;0.27;;
20476;SDS011;10397;50.948;11.092;2023-02-25T10:29:20;3.43;;;0.37;;
20476;SDS011;10397;50.948;11.092;2023-02-25T10:31:53;0.83;;;0.30;;
20476;SDS011;10397;50.948;11.092;2023-02-25T10:34:24;2.17;;;0.30;;
20476;SDS011;10397;50.948;11.092;2023-02-25T10:36:55;1.93;;;0.40;;
20476;SDS011;10397;50.948;11.092;2023-02-25T10:39:25;0.53;;;0.20;;
20476;SDS011;10397;50.948;11.092;2023-02-25T10:41:56;0.42;;;0.20;;
20476;SDS011;10397;50.948;11.092;2023-02-25T10:44:27;2.35;;;0.40;;
20476;SDS011;10397;50.948;11.092;2023-02-25T10:47:03;2.77;;;0.40;;
20476;SDS011;10397;50.948;11.092;2023-02-25T10:49:32;0.47;;;0.23;;
20476;SDS011;10397;50.948;11.092;2023-02-25T10:52:11;1.22;;;0.30;;
20476;SDS011;10397;50.948;11.092;2023-02-25T10:54:49;1.03;;;0.20;;
20476;SDS011;10397;50.948;11.092;2023-02-25T10:57:24;5.00;;;0.20;;
20476;SDS011;10397;50.948;11.092;2023-02-25T11:00:00;0.33;;;0.10;;
20476;SDS011;10397;50.948;11.092;2023-02-25T11:02:30;0.57;;;0.30;;
20476;SDS011;10397;50.948;11.092;2023-02-25T11:05:00;0.50;;;0.27;;
20476;SDS011;10397;50.948;11.092;2023-02-25T11:10:12;0.60;;;0.10;;
20476;SDS011;10397;50.948;11.092;2023-02-25T11:12:45;1.83;;;0.20;;
20476;SDS011;10397;50.948;11.092;2023-02-25T11:15:28;3.20;;;0.33;;
20476;SDS011;10397;50.948;11.092;2023-02-25T11:17:59;2.77;;;0.20;;
20476;SDS011;10397;50.948;11.092;2023-02-25T11:20:28;0.35;;;0.20;;
20476;SDS011;10397;50.948;11.092;2023-02-25T11:23:02;3.13;;;0.27;;
20476;SDS011;10397;50.948;11.092;2023-02-25T11:25:36;1.35;;;0.30;;
20476;SDS011;10397;50.948;11.092;2023-02-25T11:28:07;1.03;;;0.20;;
20476;SDS011;10397;50.948;11.092;2023-02-25T11:30:37;0.53;;;0.20;;
20476;SDS011;10397;50.948;11.092;2023-02-25T11:33:21;1.17;;;0.30;;
20476;SDS011;10397;50.948;11.092;2023-02-25T11:35:39;0.88;;;0.20;;
20476;SDS011;10397;50.948;11.092;2023-02-25T11:38:15;0.55;;;0.20;;
20476;SDS011;10397;50.948;11.092;2023-02-25T11:40:45;0.30;;;0.10;;
20476;SDS011;10397;50.948;11.092;2023-02-25T11:43:18;0.85;;;0.20;;
20476;SDS011;10397;50.948;11.092;2023-02-25T11:45:54;1.40;;;0.17;;
20476;SDS011;10397;50.948;11.092;2023-02-25T11:48:26;0.13;;;0.10;;
20476;SDS011;10397;50.948;11.092;2023-02-25T11:53:43;2.63;;;0.63;;
20476;SDS011;10397;50.948;11.092;2023-02-25T12:09:43;0.73;;;0.20;;
20476;SDS011;10397;50.948;11.092;2023-02-25T12:15:06;2.80;;;0.20;;
20476;SDS011;10397;50.948;11.092;2023-02-25T12:18:06;1.60;;;0.37;;
20476;SDS011;10397;50.948;11.092;2023-02-25T12:20:49;1.00;;;0.30;;
20476;SDS011;10397;50.948;11.092;2023-02-25T12:23:34;1.50;;;0.37;;
20476;SDS011;10397;50.948;11.092;2023-02-25T12:26:30;1.27;;;0.50;;
20476;SDS011;10397;50.948;11.092;2023-02-25T12:29:36;1.50;;;0.20;;
20476;SDS011;10397;50.948;11.092;2023-02-25T12:40:55;0.40;;;0.30;;
20476;SDS011;10397;50.948;11.092;2023-02-25T12:42:59;2.15;;;0.20;;
20476;SDS011;10397;50.948;11.092;2023-02-25T12:48:32;0.20;;;0.10;;
20476;SDS011;10397;50.948;11.092;2023-02-25T12:54:19;0.90;;;0.20;;
20476;SDS011;10397;50.948;11.092;2023-02-25T13:00:03;1.23;;;0.20;;
20476;SDS011;10397;50.948;11.092;2023-02-25T13:02:42;0.80;;;0.20;;
20476;SDS011;10397;50.948;11.092;2023-02-25T13:05:41;0.30;;;0.10;;
20476;SDS011;10397;50.948;11.092;2023-02-25T13:08:17;0.80;;;0.20;;
20476;SDS011;10397;50.948;11.092;2023-02-25T13:14:02;0.17;;;0.10;;
20476;SDS011;10397;50.948;11.092;2023-02-25T13:16:39;0.50;;;0.17;;
20476;SDS011;10397;50.948;11.092;2023-02-25T13:28:24;0.70;;;0.10;;
20476;SDS011;10397;50.948;11.092;2023-02-25T13:31:17;0.30;;;0.10;;
20476;SDS011;10397;50.948;11.092;2023-02-25T13:33:56;0.30;;;0.10;;
20476;SDS011;10397;50.948;11.092;2023-02-25T13:42:15;0.10;;;0.00;;
20476;SDS011;10397;50.948;11.092;2023-02-25T13:45:24;0.20;;;0.10;;
20476;SDS011;10397;50.948;11.092;2023-02-25T13:47:45;0.30;;;0.10;;
20476;SDS011;10397;50.948;11.092;2023-02-25T13:53:16;0.90;;;0.20;;
20476;SDS011;10397;50.948;11.092;2023-02-25T13:58:44;1.80;;;0.30;;
20476;SDS011;10397;50.948;11.092;2023-02-25T14:01:19;0.80;;;0.17;;
20476;SDS011;10397;50.948;11.092;2023-02-25T14:04:10;2.20;;;0.50;;
20476;SDS011;10397;50.948;11.092;2023-02-25T14:10:11;2.40;;;0.20;;
20476;SDS011;10397;50.948;11.092;2023-02-25T14:18:43;0.10;;;0.10;;
20476;SDS011;10397;50.948;11.092;2023-02-25T14:21:22;0.97;;;0.23;;
20476;SDS011;10397;50.948;11.092;2023-02-25T14:24:03;0.53;;;0.30;;
20476;SDS011;10397;50.948;11.092;2023-02-25T14:31:51;0.40;;;0.20;;
20476;SDS011;10397;50.948;11.092;2023-02-25T14:37:24;4.20;;;0.27;;
20476;SDS011;10397;50.948;11.092;2023-02-25T14:40:06;1.17;;;0.10;;
20476;SDS011;10397;50.948;11.092;2023-02-25T14:43:14;4.17;;;0.40;;
20476;SDS011;10397;50.948;11.092;2023-02-25T14:45:46;0.33;;;0.10;;
20476;SDS011;10397;50.948;11.092;2023-02-25T14:48:17;2.20;;;0.20;;
20476;SDS011;10397;50.948;11.092;2023-02-25T14:51:04;1.03;;;0.10;;
20476;SDS011;10397;50.948;11.092;2023-02-25T14:56:46;0.60;;;0.20;;
20476;SDS011;10397;50.948;11.092;2023-02-25T15:02:32;0.77;;;0.20;;
20476;SDS011;10397;50.948;11.092;2023-02-25T15:05:15;0.60;;;0.20;;
20476;SDS011;10397;50.948;11.092;2023-02-25T15:10:47;0.57;;;0.17;;
20476;SDS011;10397;50.948;11.092;2023-02-25T15:16:15;1.67;;;0.30;;
20476;SDS011;10397;50.948;11.092;2023-02-25T15:18:50;1.60;;;0.30;;
20476;SDS011;10397;50.948;11.092;2023-02-25T15:24:08;0.70;;;0.30;;
20476;SDS011;10397;50.948;11.092;2023-02-25T15:26:43;0.50;;;0.30;;
20476;SDS011;10397;50.948;11.092;2023-02-25T15:34:51;0.80;;;0.30;;
20476;SDS011;10397;50.948;11.092;2023-02-25T15:37:23;0.23;;;0.03;;
20476;SDS011;10397;50.948;11.092;2023-02-25T15:40:01;1.50;;;0.10;;
20476;SDS011;10397;50.948;11.092;2023-02-25T15:42:51;0.10;;;0.10;;
20476;SDS011;10397;50.948;11.092;2023-02-25T16:14:11;0.40;;;0.10;;
20476;SDS011;10397;50.948;11.092;2023-02-25T16:16:50;0.60;;;0.20;;
20476;SDS011;10397;50.948;11.092;2023-02-25T16:19:18;1.12;;;0.20;;
20476;SDS011;10397;50.948;11.092;2023-02-25T16:21:53;1.17;;;0.30;;
20476;SDS011;10397;50.948;11.092;2023-02-25T16:24:21;1.17;;;0.20;;
20476;SDS011;10397;50.948;11.092;2023-02-25T16:29:54;1.33;;;0.27;;
20476;SDS011;10397;50.948;11.092;2023-02-25T16:32:37;1.60;;;0.30;;
20476;SDS011;10397;50.948;11.092;2023-02-25T16:35:16;0.60;;;0.20;;
20476;SDS011;10397;50.948;11.092;2023-02-25T16:37:53;3.30;;;0.20;;
20476;SDS011;10397;50.948;11.092;2023-02-25T16:40:33;1.13;;;0.20;;
20476;SDS011;10397;50.948;11.092;2023-02-25T16:43:03;3.60;;;0.43;;
20476;SDS011;10397;50.948;11.092;2023-02-25T16:45:35;0.65;;;0.20;;
20476;SDS011;10397;50.948;11.092;2023-02-25T16:48:05;4.10;;;0.70;;
20476;SDS011;10397;50.948;11.092;2023-02-25T16:50:35;3.17;;;0.30;;
20476;SDS011;10397;50.948;11.092;2023-02-25T16:53:05;1.70;;;0.30;;
20476;SDS011;10397;50.948;11.092;2023-02-25T16:55:37;1.17;;;0.20;;
20476;SDS011;10397;50.948;11.092;2023-02-25T17:00:53;3.33;;;0.20;;
20476;SDS011;10397;50.948;11.092;2023-02-25T17:03:24;3.23;;;0.30;;
20476;SDS011;10397;50.948;11.092;2023-02-25T17:06:00;1.13;;;0.30;;
20476;SDS011;10397;50.948;11.092;2023-02-25T17:08:29;0.70;;;0.20;;
20476;SDS011;10397;50.948;11.092;2023-02-25T17:11:01;4.75;;;0.42;;
20476;SDS011;10397;50.948;11.092;2023-02-25T17:13:35;3.57;;;0.27;;
20476;SDS011;10397;50.948;11.092;2023-02-25T17:16:05;3.63;;;0.40;;
20476;SDS011;10397;50.948;11.092;2023-02-25T17:18:37;0.80;;;0.50;;
20476;SDS011;10397;50.948;11.092;2023-02-25T17:23:48;2.73;;;0.40;;
20476;SDS011;10397;50.948;11.092;2023-02-25T17:26:19;2.37;;;0.30;;
20476;SDS011;10397;50.948;11.092;2023-02-25T17:28:51;1.17;;;0.30;;
20476;SDS011;10397;50.948;11.092;2023-02-25T17:31:22;0.90;;;0.40;;
20476;SDS011;10397;50.948;11.092;2023-02-25T17:33:52;1.23;;;0.37;;
20476;SDS011;10397;50.948;11.092;2023-02-25T17:36:23;0.80;;;0.37;;
20476;SDS011;10397;50.948;11.092;2023-02-25T17:38:59;1.00;;;0.40;;
20476;SDS011;10397;50.948;11.092;2023-02-25T17:41:29;2.03;;;0.60;;
20476;SDS011;10397;50.948;11.092;2023-02-25T17:44:00;2.80;;;0.90;;
20476;SDS011;10397;50.948;11.092;2023-02-25T17:46:32;4.65;;;3.65;;
20476;SDS011;10397;50.948;11.092;2023-02-25T17:49:02;2.17;;;1.00;;
20476;SDS011;10397;50.948;11.092;2023-02-25T17:51:55;1.73;;;0.23;;
20476;SDS011;10397;50.948;11.092;2023-02-25T17:54:21;1.83;;;0.47;;
20476;SDS011;10397;50.948;11.092;2023-02-25T17:56:59;0.78;;;0.35;;